Time;durP1;ratioP1;P1;durP2;ratioP2;P2;SDS_P1;SDS_P2;PMS_P1;PMS_P2;Temp;Humidity;BMP_temperature;BMP_pressure;BME280_temperature;BME280_humidity;BME280_pressure;Samples;Min_cycle;Max_cycle;Signal;HPM_P1;HPM_P2
2023/10/29 00:00:45;;;;;;;;;;;;;;;11.08;94.89;95134.81;5134633;27;957;-60
2023/10/29 00:03:11;;;;;;;;;;;;;;;11.28;94.46;95140.69;5134316;27;1914;-60
2023/10/29 00:05:37;;;;;;;;;;;;;;;11.41;93.56;95142.88;5134479;28;1021;-60
2023/10/29 00:08:03;;;;;;;;;;;;;;;11.31;93.64;95151.91;5134234;28;1116;-60
2023/10/29 00:10:29;;;;;;;;;;;;;;;11.24;94.13;95148.22;5134267;28;966;-60
2023/10/29 00:12:55;;;;;;;;;;;;;;;11.11;93.57;95142.50;5134251;28;977;-60
2023/10/29 00:15:21;;;;;;;;;;;;;;;10.93;92.81;95156.03;5134419;28;995;-60
2023/10/29 00:17:47;;;;;;;;;;;;;;;10.78;92.52;95157.66;5134250;28;918;-60
2023/10/29 00:20:13;;;;;;;;;;;;;;;10.56;94.20;95159.88;5134325;28;972;-61
2023/10/29 00:22:39;;;;;;;;;;;;;;;10.52;94.46;95163.88;5115942;28;1909;-61
2023/10/29 00:25:05;;;;;;;;;;;;;;;10.51;93.77;95162.22;5134258;28;1060;-61
2023/10/29 00:27:31;;;;;;;;;;;;;;;10.55;94.52;95177.78;5134016;28;1020;-60
2023/10/29 00:29:57;;;;;;;;;;;;;;;10.43;93.74;95173.69;5134103;28;1295;-61
2023/10/29 00:32:23;;;;;;;;;;;;;;;10.34;95.06;95175.50;5133897;28;1212;-61
2023/10/29 00:34:49;;;;;;;;;;;;;;;10.35;94.95;95171.81;5115986;28;1051;-60
2023/10/29 00:37:18;;;;;;;;;;;;;;;10.39;94.52;95174.19;5134127;28;968;-60
2023/10/29 00:39:44;;;;;;;;;;;;;;;10.38;93.47;95173.34;5134113;28;1057;-60
2023/10/29 00:42:13;;;;;;;;;;;;;;;10.39;93.83;95180.34;5133875;28;1990;-60
2023/10/29 00:44:39;;;;;;;;;;;;;;;10.32;94.88;95173.97;5135334;27;1040;-61
2023/10/29 00:47:05;;;;;;;;;;;;;;;10.45;95.20;95181.56;5137927;27;1032;-61
2023/10/29 00:49:32;;;;;;;;;;;;;;;10.71;94.42;95174.31;5137860;27;1102;-61
2023/10/29 00:51:58;;;;;;;;;;;;;;;10.71;93.68;95177.00;5137965;27;972;-61
2023/10/29 00:54:24;;;;;;;;;;;;;;;10.64;93.36;95183.16;5137748;27;1079;-61
2023/10/29 00:56:53;;;;;;;;;;;;;;;10.55;93.69;95180.44;5137789;27;1047;-60
2023/10/29 00:59:20;;;;;;;;;;;;;;;10.51;93.46;95178.28;5137805;27;1008;-60
2023/10/29 01:01:47;;;;;;;;;;;;;;;10.28;92.28;95184.13;5119654;27;2004;-60
2023/10/29 01:04:13;;;;;;;;;;;;;;;10.14;93.57;95180.19;5119263;27;1055;-61
2023/10/29 01:06:41;;;;;;;;;;;;;;;10.31;93.64;95180.31;5119428;27;1000;-60
2023/10/29 01:09:07;;;;;;;;;;;;;;;10.48;94.12;95176.72;5137355;27;1384;-60
2023/10/29 01:11:33;;;;;;;;;;;;;;;10.41;93.33;95183.72;5137370;27;1053;-60
2023/10/29 01:14:00;;;;;;;;;;;;;;;10.14;93.63;95182.03;5137699;27;999;-61
2023/10/29 01:16:28;;;;;;;;;;;;;;;10.18;93.72;95190.56;5137499;27;977;-61
2023/10/29 01:18:58;;;;;;;;;;;;;;;10.11;94.06;95191.22;5137509;27;985;-61
2023/10/29 01:21:25;;;;;;;;;;;;;;;10.25;94.00;95197.78;5137124;27;1909;-61
2023/10/29 01:23:51;;;;;;;;;;;;;;;10.23;94.19;95191.78;5137225;27;1092;-61
2023/10/29 01:26:17;;;;;;;;;;;;;;;10.17;94.55;95184.41;5137390;27;1048;-60
2023/10/29 01:28:44;;;;;;;;;;;;;;;9.95;94.90;95188.41;5137143;27;1044;-61
2023/10/29 01:31:10;;;;;;;;;;;;;;;9.89;95.55;95194.38;5137242;27;952;-61
2023/10/29 01:33:37;;;;;;;;;;;;;;;9.89;94.79;95197.88;5129921;27;1414;-61
2023/10/29 01:36:03;;;;;;;;;;;;;;;9.95;95.17;95197.25;5157764;27;957;-61
2023/10/29 01:38:29;;;;;;;;;;;;;;;10.13;94.75;95194.56;5157671;27;1064;-60
2023/10/29 01:40:55;;;;;;;;;;;;;;;10.26;94.43;95195.94;5157950;27;1004;-60
2023/10/29 01:43:21;;;;;;;;;;;;;;;10.13;92.99;95189.22;5157751;27;1997;-61
2023/10/29 01:45:47;;;;;;;;;;;;;;;9.94;93.56;95195.59;5139377;27;994;-61
2023/10/29 01:48:13;;;;;;;;;;;;;;;9.68;93.77;95192.88;5157619;27;1039;-61
2023/10/29 01:50:39;;;;;;;;;;;;;;;9.64;95.23;95188.03;5157581;27;1051;-61
2023/10/29 01:53:05;;;;;;;;;;;;;;;9.81;95.26;95196.97;5157393;27;1035;-61
2023/10/29 01:55:35;;;;;;;;;;;;;;;9.99;95.05;95194.28;5157352;27;1055;-61
2023/10/29 01:58:01;;;;;;;;;;;;;;;10.14;94.27;95195.38;5157371;27;1048;-61
2023/10/29 02:00:27;;;;;;;;;;;;;;;10.10;94.12;95200.19;5157330;27;973;-61
2023/10/29 02:02:53;;;;;;;;;;;;;;;9.99;94.00;95195.13;5157177;27;1906;-61
2023/10/29 02:05:19;;;;;;;;;;;;;;;10.03;95.08;95201.81;5157232;27;972;-61
2023/10/29 02:07:45;;;;;;;;;;;;;;;9.80;95.17;95206.00;5156940;27;1238;-61
2023/10/29 02:10:11;;;;;;;;;;;;;;;9.44;94.45;95206.84;5157032;27;976;-61
2023/10/29 02:12:37;;;;;;;;;;;;;;;9.43;95.68;95207.88;5157012;27;1040;-61
2023/10/29 02:15:04;;;;;;;;;;;;;;;9.50;95.20;95218.75;5157003;27;1515;-61
2023/10/29 02:17:30;;;;;;;;;;;;;;;9.65;95.27;95217.22;5156881;27;1016;-61
2023/10/29 02:19:57;;;;;;;;;;;;;;;9.81;95.19;95213.00;5156887;27;1027;-61
2023/10/29 02:22:29;;;;;;;;;;;;;;;9.88;95.00;95211.41;5156631;27;1984;-61
2023/10/29 02:24:55;;;;;;;;;;;;;;;9.69;91.85;95207.06;5156800;27;1043;-61
2023/10/29 02:27:22;;;;;;;;;;;;;;;9.49;93.69;95219.75;5156665;27;1095;-61
2023/10/29 02:29:47;;;;;;;;;;;;;;;9.40;93.48;95218.84;5156894;27;984;-61
2023/10/29 02:32:14;;;;;;;;;;;;;;;9.36;93.53;95220.97;5138322;27;1019;-61
2023/10/29 02:34:40;;;;;;;;;;;;;;;9.12;93.79;95223.38;5136412;27;1256;-61
2023/10/29 02:37:06;;;;;;;;;;;;;;;9.36;94.97;95225.47;5135781;27;1020;-61
2023/10/29 02:39:32;;;;;;;;;;;;;;;9.44;94.83;95233.53;5135945;27;1053;-60
2023/10/29 02:41:58;;;;;;;;;;;;;;;9.48;94.61;95232.25;5135921;27;1984;-61
2023/10/29 02:44:24;;;;;;;;;;;;;;;9.42;94.19;95230.19;5135801;27;1044;-61
2023/10/29 02:46:50;;;;;;;;;;;;;;;9.40;94.66;95242.84;5135744;27;964;-61
2023/10/29 02:49:16;;;;;;;;;;;;;;;9.44;95.14;95249.56;5135449;27;1044;-61
2023/10/29 02:51:42;;;;;;;;;;;;;;;9.73;94.63;95243.13;5135573;27;1289;-61
2023/10/29 02:54:08;;;;;;;;;;;;;;;9.55;94.42;95237.81;5135479;27;1024;-60
2023/10/29 02:56:35;;;;;;;;;;;;;;;9.67;94.81;95243.75;5135581;27;1048;-60
2023/10/29 02:59:01;;;;;;;;;;;;;;;9.71;95.99;95234.44;5135529;27;1059;-61
2023/10/29 03:01:27;;;;;;;;;;;;;;;9.52;95.53;95238.97;5135256;27;1999;-61
2023/10/29 03:03:53;;;;;;;;;;;;;;;9.44;94.88;95233.53;5135376;27;1051;-61
2023/10/29 03:06:19;;;;;;;;;;;;;;;9.55;95.56;95243.16;5135216;27;972;-61
2023/10/29 03:08:45;;;;;;;;;;;;;;;9.53;94.28;95248.66;5134437;27;1281;-61
2023/10/29 03:11:12;;;;;;;;;;;;;;;9.51;94.84;95250.63;5135284;27;969;-61
2023/10/29 03:13:38;;;;;;;;;;;;;;;9.42;94.75;95261.38;5135125;27;1060;-60
2023/10/29 03:16:05;;;;;;;;;;;;;;;9.42;95.90;95261.38;5134968;27;1040;-59
2023/10/29 03:18:31;;;;;;;;;;;;;;;9.64;94.71;95265.44;5135011;27;1007;-59
2023/10/29 03:20:57;;;;;;;;;;;;;;;9.63;93.69;95263.75;5135047;27;1085;-59
2023/10/29 03:23:24;;;;;;;;;;;;;;;9.51;93.56;95258.63;5134726;27;1993;-59
2023/10/29 03:25:50;;;;;;;;;;;;;;;9.40;93.69;95256.19;5135129;27;1038;-59
2023/10/29 03:28:16;;;;;;;;;;;;;;;9.39;93.06;95262.53;5134924;27;1004;-59
2023/10/29 03:30:42;;;;;;;;;;;;;;;9.17;94.16;95264.63;5134896;27;1042;-59
2023/10/29 03:33:08;;;;;;;;;;;;;;;9.22;94.03;95264.19;5141695;27;1303;-59
2023/10/29 03:35:34;;;;;;;;;;;;;;;9.01;96.88;95269.78;5155382;27;1027;-59
2023/10/29 03:38:00;;;;;;;;;;;;;;;9.31;96.03;95265.09;5155479;27;1126;-59
2023/10/29 03:40:26;;;;;;;;;;;;;;;9.42;95.64;95264.88;5155550;27;975;-59
2023/10/29 03:42:52;;;;;;;;;;;;;;;9.31;94.86;95267.75;5155479;27;1998;-59
2023/10/29 03:45:18;;;;;;;;;;;;;;;9.33;94.30;95271.13;5155443;27;1008;-59
2023/10/29 03:47:44;;;;;;;;;;;;;;;9.41;94.55;95287.25;5155359;27;1060;-59
2023/10/29 03:50:10;;;;;;;;;;;;;;;9.30;94.17;95285.63;5155152;27;1040;-59
2023/10/29 03:52:36;;;;;;;;;;;;;;;9.11;94.16;95296.41;5155491;27;976;-59
2023/10/29 03:55:02;;;;;;;;;;;;;;;8.88;94.84;95294.13;5155201;27;1055;-59
2023/10/29 03:57:28;;;;;;;;;;;;;;;8.85;95.64;95294.41;5155319;27;1317;-59
2023/10/29 03:59:54;;;;;;;;;;;;;;;8.78;95.59;95299.50;5155230;27;1037;-59
2023/10/29 04:02:20;;;;;;;;;;;;;;;9.09;95.63;95299.22;5144780;27;1909;-60
2023/10/29 04:04:46;;;;;;;;;;;;;;;9.05;94.85;95303.16;5134345;27;1056;-60
2023/10/29 04:07:13;;;;;;;;;;;;;;;9.12;94.38;95296.22;5134345;28;1351;-61
2023/10/29 04:09:39;;;;;;;;;;;;;;;8.93;93.64;95293.66;5134469;28;1003;-60
2023/10/29 04:12:05;;;;;;;;;;;;;;;8.71;92.69;95290.41;5116214;28;1057;-59
2023/10/29 04:14:31;;;;;;;;;;;;;;;8.82;93.05;95294.72;5134296;28;965;-60
2023/10/29 04:16:57;;;;;;;;;;;;;;;8.97;93.84;95293.25;5134367;28;953;-60
2023/10/29 04:19:23;;;;;;;;;;;;;;;9.16;94.73;95300.31;5134899;27;1048;-59
2023/10/29 04:21:50;;;;;;;;;;;;;;;9.29;94.10;95299.09;5138599;27;1990;-58
2023/10/29 04:24:15;;;;;;;;;;;;;;;9.24;94.04;95296.03;5138453;27;996;-59
2023/10/29 04:26:43;;;;;;;;;;;;;;;9.16;93.08;95294.97;5138578;27;980;-59
2023/10/29 04:29:09;;;;;;;;;;;;;;;9.06;92.52;95304.84;5138137;27;1107;-59
2023/10/29 04:31:35;;;;;;;;;;;;;;;9.08;92.94;95312.69;5119936;27;1625;-58
2023/10/29 04:34:01;;;;;;;;;;;;;;;8.90;94.08;95310.81;5138385;27;1281;-59
2023/10/29 04:36:27;;;;;;;;;;;;;;;8.83;94.04;95311.53;5158864;27;1026;-59
2023/10/29 04:38:53;;;;;;;;;;;;;;;8.81;94.64;95306.34;5158788;27;1032;-58
2023/10/29 04:41:19;;;;;;;;;;;;;;;8.72;93.95;95294.72;5158900;27;1047;-59
2023/10/29 04:43:45;;;;;;;;;;;;;;;8.88;94.16;95288.78;5158637;27;1905;-58
2023/10/29 04:46:11;;;;;;;;;;;;;;;9.14;93.34;95283.63;5158658;27;1099;-59
2023/10/29 04:48:37;;;;;;;;;;;;;;;9.33;93.11;95280.00;5158644;27;968;-59
2023/10/29 04:51:06;;;;;;;;;;;;;;;9.37;94.50;95267.16;5158553;27;1044;-62
2023/10/29 04:53:33;;;;;;;;;;;;;;;9.14;94.36;95280.09;5158854;27;1028;-63
2023/10/29 04:55:59;;;;;;;;;;;;;;;8.93;96.02;95286.50;5158810;27;981;-62
2023/10/29 04:58:25;;;;;;;;;;;;;;;8.87;95.88;95295.09;5158535;27;1028;-62
2023/10/29 05:00:51;;;;;;;;;;;;;;;8.88;95.97;95299.47;5158251;27;1640;-60
2023/10/29 05:03:17;;;;;;;;;;;;;;;8.73;94.56;95288.44;5158589;27;1933;-60
2023/10/29 05:05:43;;;;;;;;;;;;;;;8.72;95.81;95292.06;5158233;27;1047;-60
2023/10/29 05:08:09;;;;;;;;;;;;;;;8.75;97.93;95306.94;5136766;27;1261;-60
2023/10/29 05:10:35;;;;;;;;;;;;;;;8.84;97.56;95308.75;5138345;27;1052;-59
2023/10/29 05:13:02;;;;;;;;;;;;;;;8.97;95.26;95311.03;5137579;27;1023;-59
2023/10/29 05:15:28;;;;;;;;;;;;;;;8.93;94.79;95317.66;5137308;27;1064;-60
2023/10/29 05:17:54;;;;;;;;;;;;;;;8.89;94.92;95316.28;5137496;27;1043;-59
2023/10/29 05:20:21;;;;;;;;;;;;;;;8.71;95.15;95301.06;5137225;27;1051;-58
2023/10/29 05:22:46;;;;;;;;;;;;;;;8.71;95.22;95310.91;5137224;27;1910;-59
2023/10/29 05:25:12;;;;;;;;;;;;;;;8.82;94.21;95313.38;5137287;27;996;-58
2023/10/29 05:27:38;;;;;;;;;;;;;;;8.92;93.41;95326.66;5137379;27;1061;-59
2023/10/29 05:30:05;;;;;;;;;;;;;;;8.72;95.68;95332.06;5136711;27;988;-58
2023/10/29 05:32:32;;;;;;;;;;;;;;;8.73;95.74;95330.25;5133724;27;1275;-60
2023/10/29 05:34:58;;;;;;;;;;;;;;;8.83;95.06;95332.88;5116520;27;1095;-59
2023/10/29 05:37:25;;;;;;;;;;;;;;;8.95;95.03;95335.22;5116481;28;1032;-59
2023/10/29 05:39:51;;;;;;;;;;;;;;;9.12;93.62;95341.56;5116651;28;1312;-59
2023/10/29 05:42:18;;;;;;;;;;;;;;;9.28;93.59;95348.13;5116524;28;1910;-58
2023/10/29 05:44:44;;;;;;;;;;;;;;;9.50;93.21;95341.53;5115110;28;1072;-59
2023/10/29 05:47:10;;;;;;;;;;;;;;;9.83;92.17;95350.72;5116346;28;1043;-59
2023/10/29 05:49:36;;;;;;;;;;;;;;;10.21;90.51;95353.25;5116179;28;1031;-59
2023/10/29 05:52:02;;;;;;;;;;;;;;;11.45;82.39;95353.03;5116753;28;975;-58
2023/10/29 05:54:28;;;;;;;;;;;;;;;13.23;74.02;95355.16;5115425;28;1100;-59
2023/10/29 05:56:54;;;;;;;;;;;;;;;15.40;64.60;95358.72;5114878;28;1565;-60
2023/10/29 05:59:20;;;;;;;;;;;;;;;16.63;59.68;95367.03;5115867;28;1081;-60
2023/10/29 06:01:46;;;;;;;;;;;;;;;17.63;56.11;95368.63;5115935;28;1905;-60
2023/10/29 06:04:13;;;;;;;;;;;;;;;18.38;53.76;95371.44;5114674;28;1072;-60
2023/10/29 06:06:39;;;;;;;;;;;;;;;19.15;51.66;95382.00;5114940;28;1281;-60
2023/10/29 06:09:05;;;;;;;;;;;;;;;19.86;49.58;95392.13;5118085;27;1246;-60
2023/10/29 06:11:31;;;;;;;;;;;;;;;20.18;49.02;95384.09;5136380;27;968;-60
2023/10/29 06:13:57;;;;;;;;;;;;;;;20.40;49.07;95387.34;5118157;27;1111;-59
2023/10/29 06:16:24;;;;;;;;;;;;;;;20.93;47.27;95407.97;5136247;27;984;-60
2023/10/29 06:18:51;;;;;;;;;;;;;;;21.38;46.32;95413.22;5136170;27;953;-60
2023/10/29 06:21:20;;;;;;;;;;;;;;;21.81;45.27;95420.63;5136343;27;1040;-60
2023/10/29 06:23:46;;;;;;;;;;;;;;;22.38;44.61;95426.69;5136201;27;1913;-60
2023/10/29 06:26:13;;;;;;;;;;;;;;;22.63;43.19;95433.94;5135997;27;1083;-60
2023/10/29 06:28:39;;;;;;;;;;;;;;;22.75;43.11;95447.66;5136106;27;1008;-60
2023/10/29 06:31:05;;;;;;;;;;;;;;;23.10;42.79;95439.59;5135924;27;1103;-61
2023/10/29 06:33:31;;;;;;;;;;;;;;;23.62;41.00;95441.75;5135759;27;1630;-61
2023/10/29 06:35:58;;;;;;;;;;;;;;;23.80;40.97;95448.19;5136101;27;1001;-60
2023/10/29 06:38:24;;;;;;;;;;;;;;;25.19;38.66;95462.88;5135757;27;1032;-60
2023/10/29 06:40:51;;;;;;;;;;;;;;;25.84;37.33;95462.38;5135784;27;1547;-61
2023/10/29 06:43:17;;;;;;;;;;;;;;;25.84;37.46;95459.66;5134731;27;1991;-60
2023/10/29 06:45:43;;;;;;;;;;;;;;;26.40;36.78;95467.06;5135695;27;966;-61
2023/10/29 06:48:09;;;;;;;;;;;;;;;26.24;36.99;95466.03;5117443;27;978;-61
2023/10/29 06:50:36;;;;;;;;;;;;;;;26.24;37.29;95471.50;5135713;27;1255;-61
2023/10/29 06:53:03;;;;;;;;;;;;;;;26.10;38.44;95468.28;5135448;27;1016;-61
2023/10/29 06:55:29;;;;;;;;;;;;;;;25.60;38.77;95458.97;5117392;27;1249;-60
2023/10/29 06:57:55;;;;;;;;;;;;;;;24.75;40.94;95450.56;5117196;27;1233;-60
2023/10/29 07:00:20;;;;;;;;;;;;;;;23.86;42.30;95441.78;5135337;27;1048;-60
2023/10/29 07:02:47;;;;;;;;;;;;;;;22.65;45.04;95428.25;5135239;27;1913;-59
2023/10/29 07:05:13;;;;;;;;;;;;;;;21.39;48.72;95415.75;5135405;27;1032;-59
2023/10/29 07:07:40;;;;;;;;;;;;;;;19.76;54.05;95400.72;5130607;27;1277;-59
2023/10/29 07:10:06;;;;;;;;;;;;;;;19.19;56.92;95399.50;5114691;28;1036;-59
2023/10/29 07:12:32;;;;;;;;;;;;;;;18.88;59.04;95393.66;5114176;28;1128;-59
2023/10/29 07:14:58;;;;;;;;;;;;;;;18.48;61.42;95403.56;5114534;28;1036;-60
2023/10/29 07:17:24;;;;;;;;;;;;;;;18.33;61.51;95423.50;5114406;28;1000;-59
2023/10/29 07:19:51;;;;;;;;;;;;;;;17.81;62.91;95424.03;5114762;28;1025;-59
2023/10/29 07:22:16;;;;;;;;;;;;;;;17.44;64.21;95426.13;5114235;28;1913;-58
2023/10/29 07:24:42;;;;;;;;;;;;;;;16.87;66.24;95436.88;5114485;28;1255;-58
2023/10/29 07:27:08;;;;;;;;;;;;;;;17.10;65.92;95441.22;5114511;28;1196;-58
2023/10/29 07:29:34;;;;;;;;;;;;;;;17.03;65.69;95443.03;5114272;28;1025;-59
2023/10/29 07:32:00;;;;;;;;;;;;;;;16.85;66.91;95441.63;5114192;28;1028;-59
2023/10/29 07:34:27;;;;;;;;;;;;;;;16.89;66.50;95450.19;5132405;27;1201;-58
2023/10/29 07:36:53;;;;;;;;;;;;;;;16.97;67.06;95442.75;5134890;27;1102;-58
2023/10/29 07:39:19;;;;;;;;;;;;;;;17.16;66.71;95440.44;5134710;27;958;-58
2023/10/29 07:41:45;;;;;;;;;;;;;;;17.18;67.15;95439.19;5133807;27;2343;-59
2023/10/29 07:44:12;;;;;;;;;;;;;;;16.77;68.73;95431.75;5116084;27;2831;-58
2023/10/29 07:46:38;;;;;;;;;;;;;;;16.86;67.74;95429.78;5114009;28;1721;-59
2023/10/29 07:49:04;;;;;;;;;;;;;;;16.75;70.69;95430.25;5114047;28;1995;-58
2023/10/29 07:51:30;;;;;;;;;;;;;;;17.19;67.96;95442.75;5126746;27;1056;-59
2023/10/29 07:53:56;;;;;;;;;;;;;;;17.30;67.53;95442.22;5095675;28;1021;-58
2023/10/29 07:56:22;;;;;;;;;;;;;;;17.34;67.40;95434.56;5118015;27;2438;-59
2023/10/29 07:58:48;;;;;;;;;;;;;;;17.59;65.95;95450.34;5134760;27;1310;-59
2023/10/29 08:01:15;;;;;;;;;;;;;;;17.55;66.11;95449.91;5134034;27;1115;-60
2023/10/29 08:03:42;;;;;;;;;;;;;;;17.48;65.42;95454.41;5130522;27;2159;-60
2023/10/29 08:06:08;;;;;;;;;;;;;;;17.25;66.66;95449.25;5114978;27;2820;-60
2023/10/29 08:08:34;;;;;;;;;;;;;;;17.05;66.79;95451.75;5136411;27;1283;-61
2023/10/29 08:11:00;;;;;;;;;;;;;;;17.31;66.08;95443.06;5134601;28;1340;-60
2023/10/29 08:13:26;;;;;;;;;;;;;;;17.51;66.81;95440.50;5134446;28;1047;-60
2023/10/29 08:15:52;;;;;;;;;;;;;;;17.70;65.92;95436.25;5134548;28;1060;-61
2023/10/29 08:18:18;;;;;;;;;;;;;;;17.95;64.24;95436.66;5134231;28;1087;-60
2023/10/29 08:20:44;;;;;;;;;;;;;;;18.22;64.75;95434.06;5135577;27;3018;-60
2023/10/29 08:23:10;;;;;;;;;;;;;;;18.50;64.26;95439.38;5134103;28;1901;-60
2023/10/29 08:25:37;;;;;;;;;;;;;;;18.57;64.32;95442.91;5134401;28;1032;-60
2023/10/29 08:28:03;;;;;;;;;;;;;;;18.57;64.63;95442.09;5134470;28;1023;-58
2023/10/29 08:30:29;;;;;;;;;;;;;;;18.80;63.15;95439.91;5120282;27;2053;-59
2023/10/29 08:32:55;;;;;;;;;;;;;;;18.65;63.88;95428.38;5143413;27;2884;-59
2023/10/29 08:35:21;;;;;;;;;;;;;;;18.63;62.59;95430.44;5142048;27;1154;-59
2023/10/29 08:37:47;;;;;;;;;;;;;;;18.89;62.88;95429.69;5134055;28;1040;-59
2023/10/29 08:40:13;;;;;;;;;;;;;;;18.94;63.10;95432.63;5133904;28;1044;-59
2023/10/29 08:42:39;;;;;;;;;;;;;;;18.96;62.30;95437.84;5134009;28;1988;-59
2023/10/29 08:45:05;;;;;;;;;;;;;;;19.05;61.55;95444.75;5134201;28;1045;-58
2023/10/29 08:47:31;;;;;;;;;;;;;;;19.14;61.65;95448.91;5134161;28;1044;-58
2023/10/29 08:49:58;;;;;;;;;;;;;;;19.22;62.64;95447.88;5134079;28;980;-58
2023/10/29 08:52:24;;;;;;;;;;;;;;;19.60;59.91;95439.94;5138139;27;1565;-60
2023/10/29 08:54:50;;;;;;;;;;;;;;;19.56;58.19;95443.28;5119878;27;2463;-59
2023/10/29 08:57:16;;;;;;;;;;;;;;;19.59;58.95;95440.97;5140053;27;1720;-59
2023/10/29 08:59:42;;;;;;;;;;;;;;;20.00;56.79;95442.59;5152457;27;1913;-59
2023/10/29 09:02:08;;;;;;;;;;;;;;;20.16;56.64;95448.63;5153820;27;1984;-59
2023/10/29 09:04:38;;;;;;;;;;;;;;;20.41;56.89;95441.44;5136305;27;1060;-59
2023/10/29 09:07:04;;;;;;;;;;;;;;;20.62;54.69;95442.19;5136515;27;1047;-59
2023/10/29 09:09:31;;;;;;;;;;;;;;;20.62;55.33;95434.88;5137289;27;1155;-60
2023/10/29 09:11:57;;;;;;;;;;;;;;;20.67;55.00;95431.50;5137573;27;1045;-59
2023/10/29 09:14:23;;;;;;;;;;;;;;;20.47;55.43;95432.41;5137384;27;1052;-59
2023/10/29 09:16:49;;;;;;;;;;;;;;;20.45;53.56;95437.25;5137655;27;1032;-59
2023/10/29 09:19:15;;;;;;;;;;;;;;;20.67;53.66;95431.50;5137347;27;1107;-61
2023/10/29 09:21:41;;;;;;;;;;;;;;;20.83;54.93;95424.72;5137635;27;1922;-58
2023/10/29 09:24:07;;;;;;;;;;;;;;;20.93;54.25;95421.53;5137293;27;1091;-58
2023/10/29 09:26:33;;;;;;;;;;;;;;;20.97;53.45;95420.88;5137248;27;987;-58
2023/10/29 09:29:02;;;;;;;;;;;;;;;21.08;53.36;95422.06;5137510;27;1281;-58
2023/10/29 09:31:28;;;;;;;;;;;;;;;21.22;51.81;95429.03;5137352;27;1050;-58
2023/10/29 09:33:54;;;;;;;;;;;;;;;21.21;51.19;95421.97;5150481;27;1169;-58
2023/10/29 09:36:23;;;;;;;;;;;;;;;21.35;52.36;95414.53;5157994;27;964;-58
2023/10/29 09:38:49;;;;;;;;;;;;;;;21.54;50.99;95417.31;5157811;27;1036;-58
2023/10/29 09:41:16;;;;;;;;;;;;;;;21.45;51.12;95414.03;5157657;27;1043;-58
2023/10/29 09:43:42;;;;;;;;;;;;;;;21.62;50.70;95411.59;5157551;27;1989;-58
2023/10/29 09:46:09;;;;;;;;;;;;;;;21.77;48.59;95413.97;5157566;27;1020;-58
2023/10/29 09:48:38;;;;;;;;;;;;;;;21.66;49.49;95406.53;5157665;27;1220;-58
2023/10/29 09:51:06;;;;;;;;;;;;;;;21.83;49.75;95403.03;5157514;27;1036;-58
2023/10/29 09:53:34;;;;;;;;;;;;;;;21.98;49.04;95397.19;5157541;27;1044;-58
2023/10/29 09:56:00;;;;;;;;;;;;;;;22.12;48.79;95394.31;5157438;27;1283;-58
2023/10/29 09:58:27;;;;;;;;;;;;;;;22.27;48.91;95380.34;5157330;27;1130;-58
2023/10/29 10:00:53;;;;;;;;;;;;;;;22.46;49.11;95387.44;5157542;27;1036;-58
2023/10/29 10:03:20;;;;;;;;;;;;;;;22.58;47.41;95384.78;5138942;27;1913;-58
2023/10/29 10:05:46;;;;;;;;;;;;;;;22.67;47.47;95377.94;5157223;27;1056;-58
2023/10/29 10:08:12;;;;;;;;;;;;;;;22.75;48.81;95380.31;5157056;27;1111;-58
2023/10/29 10:10:43;;;;;;;;;;;;;;;22.58;47.33;95379.31;5157140;27;1067;-58
2023/10/29 10:13:10;;;;;;;;;;;;;;;22.23;46.93;95383.50;5157372;27;1043;-58
2023/10/29 10:15:36;;;;;;;;;;;;;;;22.52;46.36;95377.50;5157138;27;1636;-58
2023/10/29 10:18:06;;;;;;;;;;;;;;;22.69;44.85;95388.59;5157081;27;983;-58
2023/10/29 10:20:33;;;;;;;;;;;;;;;22.81;46.55;95379.38;5157231;27;1037;-58
2023/10/29 10:22:59;;;;;;;;;;;;;;;22.66;46.69;95370.81;5157057;27;2001;-58
2023/10/29 10:25:25;;;;;;;;;;;;;;;22.82;46.65;95374.75;5156764;27;1020;-58
2023/10/29 10:27:52;;;;;;;;;;;;;;;22.84;46.66;95371.81;5157064;27;1030;-57
2023/10/29 10:30:27;;;;;;;;;;;;;;;22.90;45.54;95382.63;5156706;27;1978;-58
2023/10/29 10:33:11;;;;;;;;;;;;;;;22.90;46.42;95373.63;5152161;27;1245;-59
2023/10/29 10:35:38;;;;;;;;;;;;;;;22.86;44.76;95383.31;5117795;27;996;-59
2023/10/29 10:38:05;;;;;;;;;;;;;;;23.03;45.64;95373.44;5136106;27;1340;-59
2023/10/29 10:40:31;;;;;;;;;;;;;;;23.34;45.62;95368.75;5136050;27;973;-60
2023/10/29 10:42:57;;;;;;;;;;;;;;;23.41;44.69;95374.06;5135687;27;2000;-59
2023/10/29 10:45:26;;;;;;;;;;;;;;;23.38;44.80;95370.75;5135658;27;1083;-59
2023/10/29 10:47:58;;;;;;;;;;;;;;;23.38;45.01;95365.31;5135664;27;1028;-59
2023/10/29 10:50:25;;;;;;;;;;;;;;;23.41;44.95;95364.03;5135562;27;1030;-58
2023/10/29 10:52:51;;;;;;;;;;;;;;;23.23;43.83;95361.38;5135825;27;957;-58
2023/10/29 10:55:18;;;;;;;;;;;;;;;23.23;43.14;95361.38;5135715;27;1020;-59
2023/10/29 10:57:44;;;;;;;;;;;;;;;23.15;41.30;95371.56;5135769;27;1012;-59
2023/10/29 11:00:14;;;;;;;;;;;;;;;23.15;39.31;95368.00;5117299;27;1032;-58
2023/10/29 11:02:40;;;;;;;;;;;;;;;23.25;40.32;95360.06;5135364;27;1917;-59
2023/10/29 11:05:10;;;;;;;;;;;;;;;23.51;40.40;95357.97;5135292;27;971;-59
2023/10/29 11:07:36;;;;;;;;;;;;;;;23.22;38.83;95359.72;5135428;27;1328;-59
2023/10/29 11:10:03;;;;;;;;;;;;;;;22.94;40.91;95347.56;5135446;27;1012;-59
2023/10/29 11:12:33;;;;;;;;;;;;;;;23.05;38.73;95349.50;5117087;27;1480;-59
2023/10/29 11:15:15;;;;;;;;;;;;;;;23.15;38.03;95349.75;5135179;27;1032;-59
2023/10/29 11:17:52;;;;;;;;;;;;;;;23.19;38.87;95340.03;5144759;27;2524;-59
2023/10/29 11:20:36;;;;;;;;;;;;;;;23.16;39.35;95345.97;5153991;27;2893;-59
2023/10/29 11:23:09;;;;;;;;;;;;;;;23.19;39.79;95345.47;5137618;27;1909;-59
2023/10/29 11:25:41;;;;;;;;;;;;;;;23.21;39.34;95336.25;5155888;27;1002;-59
2023/10/29 11:28:23;;;;;;;;;;;;;;;23.10;38.35;95340.59;5135826;27;2528;-59
2023/10/29 11:31:07;;;;;;;;;;;;;;;23.08;39.64;95331.84;5116912;27;980;-60
2023/10/29 11:33:34;;;;;;;;;;;;;;;23.00;39.34;95335.69;5145178;27;1157;-59
2023/10/29 11:36:18;;;;;;;;;;;;;;;23.00;38.34;95339.25;5155458;27;1197;-58
2023/10/29 11:38:45;;;;;;;;;;;;;;;23.09;36.20;95339.78;5137354;27;1095;-58
2023/10/29 11:41:30;;;;;;;;;;;;;;;23.23;38.67;95334.09;5155630;27;953;-59
2023/10/29 11:44:15;;;;;;;;;;;;;;;23.18;37.58;95335.66;5155643;27;1979;-59
2023/10/29 11:47:02;;;;;;;;;;;;;;;23.14;38.17;95328.16;5137309;27;1036;-59
2023/10/29 11:49:30;;;;;;;;;;;;;;;23.09;37.54;95334.34;5155548;27;1060;-59
2023/10/29 11:52:03;;;;;;;;;;;;;;;23.15;37.55;95327.09;5155485;27;1109;-59
2023/10/29 11:54:32;;;;;;;;;;;;;;;23.06;38.36;95314.88;5155257;27;961;-59
2023/10/29 11:56:58;;;;;;;;;;;;;;;23.02;37.09;95317.22;5155528;27;1058;-58
2023/10/29 11:59:26;;;;;;;;;;;;;;;22.98;37.94;95316.84;5155040;27;1080;-59
2023/10/29 12:01:53;;;;;;;;;;;;;;;22.94;37.84;95315.66;5155045;27;1994;-59
2023/10/29 12:04:19;;;;;;;;;;;;;;;22.91;37.58;95309.84;5155381;27;1024;-59
2023/10/29 12:06:46;;;;;;;;;;;;;;;22.98;38.12;95305.94;5136959;27;1048;-59
2023/10/29 12:09:15;;;;;;;;;;;;;;;23.00;38.11;95316.63;5154823;27;1079;-58
2023/10/29 12:11:41;;;;;;;;;;;;;;;23.03;38.46;95318.03;5136672;27;1099;-59
2023/10/29 12:14:07;;;;;;;;;;;;;;;23.00;37.66;95320.16;5136571;27;1024;-63
2023/10/29 12:16:34;;;;;;;;;;;;;;;22.98;38.23;95310.56;5155139;27;1044;-59
2023/10/29 12:19:00;;;;;;;;;;;;;;;23.04;38.01;95315.09;5154945;27;1206;-58
2023/10/29 12:21:26;;;;;;;;;;;;;;;23.10;37.54;95311.44;5155134;27;1040;-62
2023/10/29 12:23:55;;;;;;;;;;;;;;;23.11;37.10;95315.00;5154812;27;1930;-58
2023/10/29 12:26:21;;;;;;;;;;;;;;;23.11;38.34;95313.09;5154751;27;1036;-59
2023/10/29 12:28:48;;;;;;;;;;;;;;;23.08;37.83;95315.47;5154761;27;926;-58
2023/10/29 12:31:27;;;;;;;;;;;;;;;22.88;37.53;95307.56;5154731;27;1072;-58
2023/10/29 12:34:00;;;;;;;;;;;;;;;22.79;36.95;95307.09;5141609;27;1271;-57
2023/10/29 12:36:26;;;;;;;;;;;;;;;22.89;37.57;95301.06;5134134;28;1003;-59
2023/10/29 12:38:53;;;;;;;;;;;;;;;22.88;38.42;95302.97;5134099;28;979;-59
2023/10/29 12:41:23;;;;;;;;;;;;;;;22.82;39.82;95290.25;5136178;27;1016;-59
2023/10/29 12:43:53;;;;;;;;;;;;;;;22.77;38.26;95292.88;5138290;27;1910;-59
2023/10/29 12:46:21;;;;;;;;;;;;;;;22.56;38.67;95292.34;5138234;27;1049;-59
2023/10/29 12:49:00;;;;;;;;;;;;;;;22.58;39.07;95281.22;5138357;27;1058;-59
2023/10/29 12:51:37;;;;;;;;;;;;;;;22.37;39.17;95286.13;5138039;27;1039;-59
2023/10/29 12:54:11;;;;;;;;;;;;;;;22.29;38.01;95282.91;5137984;27;1055;-59
2023/10/29 12:56:49;;;;;;;;;;;;;;;22.17;37.98;95283.66;5137956;27;1094;-59
2023/10/29 12:59:15;;;;;;;;;;;;;;;22.19;37.70;95283.41;5138085;27;971;-59
2023/10/29 13:01:48;;;;;;;;;;;;;;;22.24;37.91;95283.56;5138079;27;1917;-60